Time;durP1;ratioP1;P1;durP2;ratioP2;P2;SDS_P1;SDS_P2;PMS_P1;PMS_P2;Temp;Humidity;BMP_temperature;BMP_pressure;BME280_temperature;BME280_humidity;BME280_pressure;Samples;Min_cycle;Max_cycle;Signal;HPM_P1;HPM_P2
2023/01/28 00:02:19;;;;;;;6.45;4.47;;;2.50;99.90;;;;;;5073864;27;20039;-81
2023/01/28 00:04:45;;;;;;;5.25;4.72;;;3.20;99.90;;;;;;5107482;27;20055;-82
2023/01/28 00:07:10;;;;;;;5.07;3.92;;;2.50;99.90;;;;;;5090714;27;20323;-82
2023/01/28 00:09:38;;;;;;;8.07;4.43;;;2.50;99.90;;;;;;5073955;28;20074;-81
2023/01/28 00:12:04;;;;;;;7.10;5.00;;;2.50;99.90;;;;;;5107206;27;20043;-81
2023/01/28 00:14:30;;;;;;;6.97;5.30;;;2.50;99.90;;;;;;5107215;27;20046;-81
2023/01/28 00:16:55;;;;;;;9.10;5.90;;;2.50;99.90;;;;;;5090047;27;20047;-82
2023/01/28 00:19:22;;;;;;;9.32;5.65;;;2.90;99.90;;;;;;5125287;27;20126;-81
2023/01/28 00:21:47;;;;;;;8.38;5.43;;;2.50;99.90;;;;;;5106992;27;20094;-82
2023/01/28 00:24:19;;;;;;;6.35;4.90;;;3.60;99.90;;;;;;5109058;28;20082;-80
2023/01/28 00:26:45;;;;;;;9.00;4.82;;;2.70;99.90;;;;;;5114100;28;20043;-81
2023/01/28 00:29:10;;;;;;;7.13;5.28;;;3.80;99.90;;;;;;5114998;28;20071;-81
2023/01/28 00:31:36;;;;;;;8.35;5.22;;;2.50;99.90;;;;;;5081108;28;20088;-81
2023/01/28 00:34:02;;;;;;;5.30;4.05;;;2.50;99.90;;;;;;5093528;28;20043;-81
2023/01/28 00:36:27;;;;;;;5.82;4.20;;;2.50;99.90;;;;;;5109368;28;20184;-82
2023/01/28 00:38:56;;;;;;;4.80;3.80;;;2.50;99.90;;;;;;5090317;28;20050;-82
2023/01/28 00:41:24;;;;;;;4.38;2.70;;;2.50;99.90;;;;;;5107301;28;20040;-82
2023/01/28 00:43:50;;;;;;;5.25;2.67;;;2.50;99.90;;;;;;5106991;28;20107;-82
2023/01/28 00:46:16;;;;;;;3.80;2.90;;;2.60;99.90;;;;;;5106949;28;20035;-81
2023/01/28 00:48:43;;;;;;;3.45;2.45;;;2.50;99.90;;;;;;5106673;28;20050;-82
2023/01/28 00:51:11;;;;;;;4.78;3.00;;;2.40;99.90;;;;;;5089674;28;20039;-82
2023/01/28 00:53:38;;;;;;;3.60;3.15;;;3.60;99.90;;;;;;5090187;28;20062;-81
2023/01/28 00:56:06;;;;;;;3.35;2.83;;;2.50;99.90;;;;;;5107080;28;20066;-81
2023/01/28 00:58:32;;;;;;;3.33;2.97;;;2.50;99.90;;;;;;5090612;28;20049;-82
2023/01/28 01:01:12;;;;;;;3.35;2.38;;;2.40;99.90;;;;;;5106735;28;20342;-81
2023/01/28 01:03:42;;;;;;;3.30;2.55;;;2.50;99.90;;;;;;5091094;28;20054;-82
2023/01/28 01:06:09;;;;;;;3.47;2.60;;;3.00;99.90;;;;;;5073328;28;20062;-82
2023/01/28 01:08:38;;;;;;;3.75;2.47;;;2.40;99.90;;;;;;5089438;28;20044;-81
2023/01/28 01:11:06;;;;;;;2.97;1.90;;;3.60;99.90;;;;;;5090774;28;20038;-82
2023/01/28 01:13:33;;;;;;;3.72;1.80;;;2.50;99.90;;;;;;5106540;28;20050;-82
2023/01/28 01:16:08;;;;;;;3.03;1.83;;;2.50;99.90;;;;;;5089850;28;20126;-82
2023/01/28 01:18:34;;;;;;;3.97;1.73;;;3.60;99.90;;;;;;5106715;28;20046;-82
2023/01/28 01:21:01;;;;;;;1.95;1.60;;;3.40;99.90;;;;;;5106022;28;20162;-82
2023/01/28 01:23:28;;;;;;;2.15;1.80;;;2.40;99.90;;;;;;5106298;28;20564;-82
2023/01/28 01:25:54;;;;;;;2.97;2.08;;;2.50;99.90;;;;;;5106312;28;20032;-81
2023/01/28 01:28:21;;;;;;;2.53;2.10;;;2.50;99.90;;;;;;5106615;28;20054;-81
2023/01/28 01:30:48;;;;;;;3.05;2.08;;;3.40;99.90;;;;;;5092723;27;20070;-81
2023/01/28 01:33:14;;;;;;;2.13;1.90;;;2.40;99.90;;;;;;5093109;27;20050;-81
2023/01/28 01:35:40;;;;;;;4.00;1.83;;;3.10;99.90;;;;;;5076360;27;20095;-82
2023/01/28 01:38:06;;;;;;;2.47;1.98;;;2.40;99.90;;;;;;5059158;27;20138;-81
2023/01/28 01:40:32;;;;;;;4.30;2.40;;;2.40;99.90;;;;;;5093150;27;20097;-82
2023/01/28 01:42:58;;;;;;;4.07;2.05;;;2.40;99.90;;;;;;5109826;27;20031;-82
2023/01/28 01:45:24;;;;;;;4.45;2.67;;;2.40;99.90;;;;;;5110325;27;20057;-82
2023/01/28 01:48:02;;;;;;;5.05;2.63;;;3.30;99.90;;;;;;5109356;27;20047;-82
2023/01/28 01:50:39;;;;;;;2.90;1.98;;;2.40;99.90;;;;;;5110022;27;20406;-82
2023/01/28 01:53:12;;;;;;;2.50;2.30;;;2.40;99.90;;;;;;5109306;27;20451;-82
2023/01/28 01:55:42;;;;;;;2.75;2.03;;;2.40;99.90;;;;;;5109545;27;20047;-82
2023/01/28 01:58:16;;;;;;;2.95;2.65;;;2.40;99.90;;;;;;5109805;27;20043;-82
2023/01/28 02:00:42;;;;;;;5.22;2.00;;;3.00;99.90;;;;;;5092296;27;20039;-82
2023/01/28 02:03:09;;;;;;;2.55;1.80;;;2.40;99.90;;;;;;5109650;27;20050;-82
2023/01/28 02:05:36;;;;;;;4.00;2.03;;;2.40;99.90;;;;;;5109513;27;20167;-81
2023/01/28 02:08:21;;;;;;;2.55;2.10;;;2.40;99.90;;;;;;5108710;27;20047;-81
2023/01/28 02:11:01;;;;;;;2.70;2.05;;;2.40;99.90;;;;;;5109099;27;20050;-81
2023/01/28 02:13:33;;;;;;;3.28;2.47;;;2.40;99.90;;;;;;5109049;27;20043;-81
2023/01/28 02:16:02;;;;;;;2.15;1.85;;;2.40;99.90;;;;;;5109044;27;20051;-81
2023/01/28 02:18:27;;;;;;;5.57;2.25;;;2.40;99.90;;;;;;5109141;27;20043;-81
2023/01/28 02:20:56;;;;;;;6.35;2.10;;;2.40;99.90;;;;;;5108928;27;20129;-82
2023/01/28 02:23:40;;;;;;;2.92;2.35;;;2.40;99.90;;;;;;5109229;27;20489;-81
2023/01/28 02:26:26;;;;;;;3.92;2.55;;;2.40;99.90;;;;;;5108724;27;20055;-81
2023/01/28 02:29:30;;;;;;;5.45;2.78;;;2.40;99.90;;;;;;5108921;27;20632;-81
2023/01/28 02:32:16;;;;;;;4.30;2.30;;;2.40;99.90;;;;;;5108662;27;20047;-82
2023/01/28 02:34:51;;;;;;;2.95;2.08;;;2.40;99.90;;;;;;5109048;27;20509;-82
2023/01/28 02:37:28;;;;;;;3.10;1.77;;;2.40;99.90;;;;;;5109345;27;20051;-82
2023/01/28 02:39:58;;;;;;;4.00;2.47;;;2.40;99.90;;;;;;5108821;27;20047;-81
2023/01/28 02:42:34;;;;;;;3.40;2.95;;;2.40;99.90;;;;;;5108350;27;20059;-81
2023/01/28 02:45:00;;;;;;;7.22;2.58;;;2.40;99.90;;;;;;5108703;27;20512;-82
2023/01/28 02:50:16;;;;;;;2.22;1.65;;;2.40;99.90;;;;;;5108481;27;20096;-82
2023/01/28 02:56:05;;;;;;;4.40;2.08;;;2.40;99.90;;;;;;5109024;27;20390;-82
2023/01/28 02:58:36;;;;;;;2.63;1.92;;;2.40;99.90;;;;;;5095733;27;20127;-81
2023/01/28 03:01:07;;;;;;;2.35;1.60;;;2.40;99.90;;;;;;5108663;27;20039;-82
2023/01/28 03:03:56;;;;;;;3.25;1.98;;;3.40;99.90;;;;;;5091506;27;20047;-82
2023/01/28 03:06:39;;;;;;;4.05;1.65;;;2.40;99.90;;;;;;5108335;27;20035;-82
2023/01/28 03:09:23;;;;;;;2.25;1.40;;;2.40;99.90;;;;;;5108623;27;20049;-82
2023/01/28 03:37:04;;;;;;;9.68;2.10;;;2.40;99.90;;;;;;5107617;27;20100;-82
2023/01/28 03:39:30;;;;;;;6.20;1.98;;;2.50;99.90;;;;;;5090673;27;20035;-81
2023/01/28 03:42:11;;;;;;;5.05;2.10;;;2.40;99.90;;;;;;5090536;27;20046;-82
2023/01/28 03:44:52;;;;;;;2.17;1.40;;;2.40;99.90;;;;;;5090147;27;20103;-82
2023/01/28 03:47:29;;;;;;;3.00;1.95;;;3.40;99.90;;;;;;5060863;27;20043;-81
2023/01/28 03:49:58;;;;;;;3.10;2.10;;;3.70;99.90;;;;;;5107398;27;20047;-82
2023/01/28 03:52:29;;;;;;;2.80;2.10;;;2.40;99.90;;;;;;5090283;28;20062;-81
2023/01/28 03:54:55;;;;;;;2.72;1.80;;;2.40;99.90;;;;;;5089923;27;20096;-82
2023/01/28 03:57:24;;;;;;;2.53;1.90;;;2.40;99.90;;;;;;5090369;27;20036;-82
2023/01/28 03:59:51;;;;;;;3.30;2.20;;;2.50;99.90;;;;;;5107726;27;20130;-82
2023/01/28 04:02:18;;;;;;;1.83;1.65;;;2.40;99.90;;;;;;5107656;27;20054;-82
2023/01/28 04:04:44;;;;;;;4.63;2.13;;;2.40;99.90;;;;;;5090015;27;20047;-82
2023/01/28 04:07:15;;;;;;;3.78;2.38;;;2.50;99.90;;;;;;5125653;27;20047;-80
2023/01/28 04:09:42;;;;;;;2.78;2.03;;;3.50;99.90;;;;;;5073844;27;20371;-80
2023/01/28 04:12:09;;;;;;;3.42;2.13;;;3.40;99.90;;;;;;5106594;27;20134;-80
2023/01/28 04:14:35;;;;;;;3.15;2.53;;;2.50;99.90;;;;;;5125281;27;20050;-80
2023/01/28 04:17:01;;;;;;;3.15;2.20;;;3.90;99.90;;;;;;5125657;27;20035;-81
2023/01/28 04:19:27;;;;;;;3.38;2.47;;;3.00;99.90;;;;;;5090263;27;20046;-81
2023/01/28 04:21:53;;;;;;;3.08;2.50;;;2.40;99.90;;;;;;5125131;27;20047;-80
2023/01/28 04:24:20;;;;;;;5.68;2.45;;;2.50;99.90;;;;;;5073599;28;20072;-80
2023/01/28 04:26:46;;;;;;;3.60;2.35;;;2.50;99.90;;;;;;5106835;28;20079;-80
2023/01/28 04:29:12;;;;;;;3.60;2.40;;;2.50;99.90;;;;;;5125241;28;20398;-80
2023/01/28 04:31:37;;;;;;;3.63;2.40;;;2.40;99.90;;;;;;5090293;28;20039;-81
2023/01/28 04:34:03;;;;;;;2.58;2.20;;;2.40;99.90;;;;;;5125357;28;20133;-80
2023/01/28 04:36:29;;;;;;;3.08;1.95;;;2.40;99.90;;;;;;5125461;28;20038;-80
2023/01/28 04:38:54;;;;;;;1.80;1.52;;;3.60;99.90;;;;;;5106898;28;20083;-80
2023/01/28 04:41:20;;;;;;;2.03;1.75;;;2.40;99.90;;;;;;5125669;28;20043;-80
2023/01/28 04:43:48;;;;;;;3.00;2.30;;;2.60;99.90;;;;;;5090004;28;20065;-80
2023/01/28 04:46:15;;;;;;;3.75;2.15;;;2.40;99.90;;;;;;5124894;28;20050;-80
2023/01/28 04:48:41;;;;;;;4.30;2.63;;;2.40;99.90;;;;;;5106800;28;20126;-80
2023/01/28 04:51:06;;;;;;;3.53;2.40;;;2.40;99.90;;;;;;5106624;28;20085;-80
2023/01/28 04:53:33;;;;;;;3.30;2.03;;;2.40;99.90;;;;;;5125057;28;20035;-81
2023/01/28 04:55:59;;;;;;;4.05;2.38;;;2.40;99.90;;;;;;5106268;28;20054;-81
2023/01/28 04:58:25;;;;;;;3.33;2.78;;;2.40;99.90;;;;;;5106286;28;20047;-79
2023/01/28 05:00:57;;;;;;;4.07;2.30;;;2.90;99.90;;;;;;5106374;28;20079;-80
2023/01/28 05:03:23;;;;;;;3.40;2.67;;;2.40;99.90;;;;;;5106377;27;20065;-80
2023/01/28 05:05:49;;;;;;;3.05;2.60;;;2.40;99.90;;;;;;5110259;27;20364;-80
2023/01/28 05:08:15;;;;;;;5.15;2.92;;;2.40;99.90;;;;;;5110438;27;20058;-79
2023/01/28 05:10:41;;;;;;;3.08;2.35;;;2.40;99.90;;;;;;5110306;27;20152;-80
2023/01/28 05:13:07;;;;;;;3.25;2.30;;;2.30;99.90;;;;;;5093123;27;20051;-79
2023/01/28 05:15:33;;;;;;;5.28;2.90;;;2.30;99.90;;;;;;5093855;27;20122;-80
2023/01/28 05:17:59;;;;;;;3.35;2.67;;;2.30;99.90;;;;;;5110197;27;20173;-80
2023/01/28 05:20:24;;;;;;;4.93;2.70;;;2.30;99.90;;;;;;5110269;27;20057;-80
2023/01/28 05:22:51;;;;;;;3.45;2.88;;;2.30;99.90;;;;;;5110051;27;20051;-80
2023/01/28 05:25:16;;;;;;;3.45;2.83;;;1.10;99.90;;;;;;5110259;27;20059;-80
2023/01/28 05:27:42;;;;;;;3.50;2.70;;;2.30;99.90;;;;;;5093003;27;20408;-81
2023/01/28 05:30:09;;;;;;;4.07;2.83;;;3.60;99.90;;;;;;5109560;27;20043;-80
2023/01/28 05:32:34;;;;;;;3.40;2.83;;;2.30;99.90;;;;;;5110132;27;20595;-80
2023/01/28 05:35:00;;;;;;;3.13;2.60;;;2.30;99.90;;;;;;5128154;27;20039;-80
2023/01/28 05:37:26;;;;;;;4.13;3.00;;;2.30;99.90;;;;;;5092706;27;20197;-82
2023/01/28 05:39:52;;;;;;;5.75;2.88;;;2.80;99.90;;;;;;5128212;27;20390;-81
2023/01/28 05:42:19;;;;;;;4.65;3.22;;;2.30;99.90;;;;;;5109428;27;20046;-81
2023/01/28 05:44:45;;;;;;;4.05;3.03;;;2.30;99.90;;;;;;5093734;27;20089;-81
2023/01/28 05:47:11;;;;;;;5.88;3.00;;;2.30;99.90;;;;;;5109210;27;20063;-80
2023/01/28 05:49:37;;;;;;;3.90;3.00;;;2.30;99.90;;;;;;5128441;27;20076;-81
2023/01/28 05:52:03;;;;;;;4.95;3.30;;;3.10;99.90;;;;;;5109188;27;20039;-81
2023/01/28 05:54:29;;;;;;;5.32;3.33;;;2.30;99.90;;;;;;5128017;27;20051;-81
2023/01/28 05:56:55;;;;;;;4.70;3.20;;;2.80;99.90;;;;;;5127863;27;20131;-81
2023/01/28 05:59:21;;;;;;;6.85;2.85;;;2.30;99.90;;;;;;5127904;27;20070;-81
2023/01/28 06:01:47;;;;;;;5.85;3.17;;;2.30;99.90;;;;;;5109484;27;20043;-81
2023/01/28 06:04:12;;;;;;;4.05;3.17;;;2.30;99.90;;;;;;5092414;27;20533;-81
2023/01/28 06:06:38;;;;;;;3.90;3.20;;;3.20;99.90;;;;;;5128047;27;20089;-81
2023/01/28 06:09:04;;;;;;;4.80;3.35;;;2.30;99.90;;;;;;5127790;27;20126;-81
2023/01/28 06:11:30;;;;;;;5.72;2.95;;;3.20;99.90;;;;;;5109068;27;20058;-81
2023/01/28 06:13:55;;;;;;;5.63;3.25;;;2.90;99.90;;;;;;5109264;27;20054;-81
2023/01/28 06:16:25;;;;;;;5.30;3.95;;;2.30;99.90;;;;;;5108398;27;20371;-81
2023/01/28 06:18:51;;;;;;;5.43;4.05;;;3.40;99.90;;;;;;5092652;27;20047;-82
2023/01/28 06:21:19;;;;;;;5.15;3.80;;;2.30;99.90;;;;;;5092725;27;20534;-82
2023/01/28 06:23:45;;;;;;;4.43;3.75;;;3.50;99.90;;;;;;5127741;27;20075;-81
2023/01/28 06:26:11;;;;;;;4.82;4.00;;;2.20;99.90;;;;;;5108881;27;20060;-81
2023/01/28 06:28:36;;;;;;;7.57;4.43;;;2.20;99.90;;;;;;5109260;27;20054;-81
2023/01/28 06:31:02;;;;;;;6.13;4.30;;;2.20;99.90;;;;;;5109101;27;20236;-81
2023/01/28 06:33:28;;;;;;;5.47;4.22;;;2.20;99.90;;;;;;5127400;27;20126;-81
2023/01/28 06:35:54;;;;;;;5.43;3.75;;;2.80;99.90;;;;;;5109582;27;20047;-81
2023/01/28 06:38:20;;;;;;;5.70;4.55;;;2.20;99.90;;;;;;5108580;27;20051;-81
2023/01/28 06:40:51;;;;;;;5.75;4.75;;;2.20;99.90;;;;;;5109224;27;20054;-81
2023/01/28 06:43:17;;;;;;;9.90;5.10;;;2.20;99.90;;;;;;5108546;27;20047;-81
2023/01/28 06:45:42;;;;;;;7.53;4.95;;;2.20;99.90;;;;;;5108894;27;20123;-81
2023/01/28 06:48:08;;;;;;;5.53;4.20;;;3.50;99.90;;;;;;5074380;27;20088;-82
2023/01/28 06:50:34;;;;;;;5.60;4.57;;;2.10;99.90;;;;;;5074700;27;20043;-83
2023/01/28 06:52:59;;;;;;;8.15;4.65;;;2.10;99.90;;;;;;5108581;27;20091;-81
2023/01/28 06:55:25;;;;;;;6.25;5.25;;;2.10;99.90;;;;;;5074512;27;20406;-81
2023/01/28 06:57:50;;;;;;;9.02;5.40;;;2.10;99.90;;;;;;5074877;27;20164;-81
2023/01/28 07:00:17;;;;;;;8.90;5.22;;;2.00;99.90;;;;;;5108145;27;20058;-81
2023/01/28 07:02:42;;;;;;;5.95;4.60;;;2.00;99.90;;;;;;5091722;27;20546;-82
2023/01/28 07:05:09;;;;;;;5.95;4.25;;;2.00;99.90;;;;;;5091317;27;20144;-81
2023/01/28 07:07:34;;;;;;;7.88;5.40;;;2.00;99.90;;;;;;5108181;27;20152;-80
2023/01/28 07:10:00;;;;;;;5.57;4.97;;;0.70;99.90;;;;;;5091504;27;20084;-80
2023/01/28 07:12:26;;;;;;;6.93;5.22;;;2.00;99.90;;;;;;5108111;27;20047;-80
2023/01/28 07:14:52;;;;;;;8.05;5.38;;;2.70;99.90;;;;;;5091458;27;20047;-80
2023/01/28 07:17:18;;;;;;;6.53;4.45;;;2.90;99.90;;;;;;5073973;27;20078;-80
2023/01/28 07:19:43;;;;;;;8.65;5.65;;;2.00;99.90;;;;;;5108231;27;20042;-80
2023/01/28 07:22:09;;;;;;;6.85;5.80;;;2.00;99.90;;;;;;5087179;28;20047;-80
2023/01/28 07:24:35;;;;;;;6.22;4.20;;;1.90;99.90;;;;;;5087872;28;20506;-80
2023/01/28 07:27:01;;;;;;;5.07;4.28;;;1.90;99.90;;;;;;5103609;28;20079;-80
2023/01/28 07:29:26;;;;;;;5.97;4.53;;;1.00;99.90;;;;;;5070694;28;20051;-80
2023/01/28 07:31:55;;;;;;;5.85;4.97;;;1.70;99.90;;;;;;5104183;28;20075;-80
2023/01/28 07:34:20;;;;;;;8.45;5.07;;;1.70;99.90;;;;;;5087127;28;20492;-80
2023/01/28 07:36:46;;;;;;;6.82;5.22;;;2.60;99.90;;;;;;5086850;28;20127;-80
2023/01/28 07:39:12;;;;;;;6.65;5.18;;;1.60;99.90;;;;;;5086864;28;20055;-80
2023/01/28 07:41:37;;;;;;;6.97;4.75;;;1.50;99.90;;;;;;5104335;28;20475;-80
2023/01/28 07:44:03;;;;;;;6.35;4.72;;;1.50;99.90;;;;;;5105380;28;20043;-80
2023/01/28 07:46:29;;;;;;;6.57;5.13;;;1.40;99.90;;;;;;5104388;28;20449;-80
2023/01/28 07:48:54;;;;;;;5.88;4.95;;;1.40;99.90;;;;;;5103550;28;20039;-80
2023/01/28 07:51:20;;;;;;;6.00;4.50;;;1.30;99.90;;;;;;5086806;28;20062;-80
2023/01/28 07:53:46;;;;;;;8.13;4.97;;;2.00;99.90;;;;;;5069997;28;20059;-80
2023/01/28 07:56:11;;;;;;;8.75;5.30;;;1.30;99.90;;;;;;5104985;28;20035;-80
2023/01/28 07:58:37;;;;;;;7.47;4.80;;;2.30;99.90;;;;;;5103709;28;20494;-80
2023/01/28 08:01:03;;;;;;;6.15;4.93;;;1.30;99.90;;;;;;5086417;28;20279;-80
2023/01/28 08:03:29;;;;;;;6.50;4.85;;;1.30;99.90;;;;;;5103727;28;20046;-80
2023/01/28 08:05:56;;;;;;;5.97;4.97;;;1.50;99.90;;;;;;5105042;28;20039;-80
2023/01/28 08:08:23;;;;;;;8.82;5.65;;;1.30;99.90;;;;;;5086826;28;20039;-80
2023/01/28 08:10:49;;;;;;;8.98;4.97;;;1.30;99.90;;;;;;5103908;28;20407;-81
2023/01/28 08:13:15;;;;;;;6.15;4.32;;;1.30;99.90;;;;;;5086683;28;20408;-83
2023/01/28 08:15:41;;;;;;;6.38;5.20;;;1.30;99.90;;;;;;5103271;28;20052;-81
2023/01/28 08:18:09;;;;;;;8.25;5.00;;;1.30;99.90;;;;;;5104212;28;20058;-80
2023/01/28 08:20:35;;;;;;;7.80;5.18;;;1.40;99.90;;;;;;5104917;28;20052;-81
2023/01/28 08:23:19;;;;;;;5.90;4.90;;;1.50;99.90;;;;;;5103017;28;20066;-80
2023/01/28 08:25:46;;;;;;;7.50;5.20;;;1.50;99.90;;;;;;5086089;28;20131;-80
2023/01/28 08:28:13;;;;;;;8.98;4.70;;;1.70;99.90;;;;;;5086188;28;20047;-80
2023/01/28 08:30:40;;;;;;;7.07;4.47;;;1.80;99.90;;;;;;5103196;28;20191;-80
2023/01/28 08:33:08;;;;;;;8.38;4.60;;;1.80;99.90;;;;;;5103441;28;20055;-80
2023/01/28 08:35:33;;;;;;;6.03;4.28;;;2.00;99.90;;;;;;5105312;28;20075;-80
2023/01/28 08:38:01;;;;;;;6.28;4.25;;;2.60;99.90;;;;;;5104587;28;20090;-80
2023/01/28 08:40:27;;;;;;;8.40;4.55;;;3.00;99.90;;;;;;5106137;28;20169;-80
2023/01/28 08:42:54;;;;;;;7.43;4.70;;;2.00;99.90;;;;;;5108826;28;20055;-78
2023/01/28 08:45:21;;;;;;;5.82;4.10;;;2.00;99.90;;;;;;5109270;28;20074;-78
2023/01/28 08:47:56;;;;;;;4.90;3.88;;;2.00;99.90;;;;;;5107169;28;20054;-79
2023/01/28 08:50:23;;;;;;;7.65;4.53;;;2.00;99.90;;;;;;5108881;28;20450;-79
2023/01/28 08:52:58;;;;;;;5.43;4.70;;;3.10;99.90;;;;;;5109382;28;20386;-78
2023/01/28 08:55:25;;;;;;;6.80;4.53;;;1.90;99.90;;;;;;5107236;28;20047;-83
2023/01/28 08:57:51;;;;;;;5.50;4.68;;;1.90;99.90;;;;;;5107313;28;20378;-83
2023/01/28 09:00:20;;;;;;;6.75;4.45;;;2.00;99.90;;;;;;5106538;28;20419;-84
2023/01/28 09:02:49;;;;;;;6.88;5.03;;;2.00;99.90;;;;;;5090080;28;20083;-83
2023/01/28 09:05:15;;;;;;;6.97;4.68;;;2.10;99.90;;;;;;5106554;28;20040;-83
2023/01/28 09:07:41;;;;;;;5.50;4.18;;;2.20;99.90;;;;;;5073102;28;20435;-83
2023/01/28 09:10:08;;;;;;;6.70;4.80;;;3.10;99.90;;;;;;5107300;28;20044;-83
2023/01/28 09:12:35;;;;;;;5.13;4.07;;;2.30;99.90;;;;;;5107225;28;20040;-83
2023/01/28 09:15:00;;;;;;;6.38;3.95;;;2.40;99.90;;;;;;5106785;28;20048;-83
2023/01/28 09:17:26;;;;;;;4.85;4.18;;;2.40;99.90;;;;;;5056195;28;20042;-83
2023/01/28 09:19:52;;;;;;;7.18;4.18;;;3.00;99.90;;;;;;5072808;28;20130;-83
2023/01/28 09:22:18;;;;;;;5.85;3.90;;;2.80;99.90;;;;;;5072359;28;20039;-83
2023/01/28 09:24:44;;;;;;;6.22;3.70;;;3.80;99.90;;;;;;5089369;28;20054;-83
2023/01/28 09:27:10;;;;;;;5.88;3.67;;;3.30;99.90;;;;;;5089503;28;20044;-85
2023/01/28 09:29:36;;;;;;;6.53;3.92;;;3.60;99.90;;;;;;5072783;28;20131;-80
2023/01/28 09:32:02;;;;;;;5.32;3.17;;;3.70;99.90;;;;;;5106617;28;20048;-80
2023/01/28 09:34:28;;;;;;;10.05;3.50;;;4.00;99.90;;;;;;5108091;28;20167;-79
2023/01/28 09:36:54;;;;;;;5.80;3.20;;;4.10;99.90;;;;;;5107973;28;20505;-78
2023/01/28 09:39:20;;;;;;;5.28;3.08;;;5.50;99.90;;;;;;5106354;28;20047;-79
2023/01/28 09:41:54;;;;;;;4.10;3.28;;;4.30;99.90;;;;;;5106444;28;20043;-81
2023/01/28 09:44:52;;;;;;;5.40;3.35;;;4.20;99.90;;;;;;5106384;28;20487;-79
2023/01/28 09:47:34;;;;;;;6.55;3.42;;;4.20;99.90;;;;;;5089819;28;20496;-79
2023/01/28 09:50:06;;;;;;;3.88;3.20;;;4.20;99.90;;;;;;5107882;28;20131;-79
2023/01/28 09:52:35;;;;;;;4.47;3.83;;;4.90;99.90;;;;;;5107552;28;20050;-79
2023/01/28 09:55:04;;;;;;;4.25;3.47;;;4.10;99.90;;;;;;5106798;28;20044;-77
2023/01/28 09:57:51;;;;;;;6.15;3.28;;;4.10;99.90;;;;;;5106399;28;20093;-78
2023/01/28 10:00:20;;;;;;;5.25;3.88;;;4.30;99.90;;;;;;5106377;28;20051;-77
2023/01/28 10:03:36;;;;;;;5.25;3.38;;;4.10;99.90;;;;;;5089193;28;20035;-77
2023/01/28 10:07:04;;;;;;;5.10;3.72;;;4.30;99.90;;;;;;5063295;28;20067;-78
2023/01/28 10:09:51;;;;;;;7.75;3.47;;;4.50;99.90;;;;;;5002141;28;20124;-78
2023/01/28 10:12:38;;;;;;;4.20;3.03;;;4.70;99.90;;;;;;5100110;28;20354;-78
2023/01/28 10:15:24;;;;;;;7.43;3.90;;;4.50;99.90;;;;;;5105825;28;20043;-78
2023/01/28 10:17:53;;;;;;;4.85;3.55;;;4.50;99.90;;;;;;5088588;28;20051;-78
2023/01/28 10:20:32;;;;;;;5.13;3.72;;;4.60;99.90;;;;;;5105687;28;20051;-78
2023/01/28 10:23:14;;;;;;;7.38;3.63;;;4.70;99.90;;;;;;5124725;27;20084;-78
2023/01/28 10:25:44;;;;;;;7.10;3.50;;;4.80;99.90;;;;;;5109112;27;20035;-78
2023/01/28 10:28:20;;;;;;;6.47;3.70;;;5.00;99.90;;;;;;5127977;27;20047;-78
2023/01/28 10:30:47;;;;;;;4.90;4.05;;;5.30;99.90;;;;;;5108977;27;20107;-78
2023/01/28 10:33:36;;;;;;;5.60;3.85;;;5.50;99.90;;;;;;5127508;27;20051;-78
2023/01/28 10:36:02;;;;;;;5.43;3.45;;;5.50;99.90;;;;;;5108858;27;20118;-78
2023/01/28 10:38:30;;;;;;;4.40;3.20;;;5.40;99.90;;;;;;5108945;27;20043;-78
2023/01/28 10:41:00;;;;;;;4.88;3.50;;;5.40;99.90;;;;;;5108937;27;20474;-78
2023/01/28 10:43:31;;;;;;;4.93;3.58;;;6.70;99.90;;;;;;5127434;27;20113;-78
2023/01/28 10:46:06;;;;;;;6.80;3.42;;;5.30;99.90;;;;;;5108572;27;20047;-78
2023/01/28 10:48:36;;;;;;;6.30;3.47;;;5.30;99.90;;;;;;5108545;27;20065;-78
2023/01/28 10:51:05;;;;;;;4.60;3.17;;;5.30;99.90;;;;;;5108950;27;20081;-78
2023/01/28 10:53:37;;;;;;;5.13;3.28;;;5.30;99.90;;;;;;5108621;27;20074;-78
2023/01/28 10:56:07;;;;;;;4.22;3.25;;;5.30;99.90;;;;;;5091291;27;20046;-78
2023/01/28 10:58:46;;;;;;;5.32;3.83;;;4.50;99.90;;;;;;5091456;27;20043;-80
2023/01/28 11:01:12;;;;;;;5.60;3.75;;;5.40;99.90;;;;;;5108778;27;20047;-79
2023/01/28 11:03:39;;;;;;;5.78;3.63;;;5.50;99.90;;;;;;5074474;27;20054;-81
2023/01/28 11:06:05;;;;;;;6.40;3.38;;;5.50;99.90;;;;;;5091651;27;20104;-79
2023/01/28 11:08:41;;;;;;;9.65;4.28;;;5.80;99.90;;;;;;5108334;27;20094;-78
2023/01/28 11:11:13;;;;;;;6.80;3.80;;;5.80;99.90;;;;;;5108668;27;20043;-80
2023/01/28 11:13:49;;;;;;;5.75;4.00;;;5.80;99.90;;;;;;5108216;27;20058;-79
2023/01/28 11:16:19;;;;;;;4.25;3.35;;;5.80;99.90;;;;;;5091134;27;20089;-81
2023/01/28 11:18:53;;;;;;;5.53;3.60;;;5.70;99.90;;;;;;5108308;27;20396;-81
2023/01/28 11:21:25;;;;;;;5.60;3.35;;;5.70;99.90;;;;;;5107766;27;20112;-81
2023/01/28 11:24:13;;;;;;;4.38;3.17;;;5.70;99.90;;;;;;5127425;27;20058;-80
2023/01/28 11:26:44;;;;;;;5.75;3.78;;;5.70;99.90;;;;;;5108137;27;20513;-79
2023/01/28 11:29:31;;;;;;;4.47;3.17;;;5.70;99.90;;;;;;5108075;27;20047;-80
2023/01/28 11:31:59;;;;;;;7.38;4.15;;;6.00;99.90;;;;;;5107730;27;20091;-80
2023/01/28 11:34:27;;;;;;;9.00;3.88;;;5.70;99.90;;;;;;5107753;27;20043;-80
2023/01/28 11:37:02;;;;;;;4.30;3.22;;;5.70;99.90;;;;;;5126163;27;20043;-80
2023/01/28 11:39:29;;;;;;;7.20;3.83;;;5.90;99.90;;;;;;5091149;27;20079;-80
2023/01/28 11:42:23;;;;;;;5.00;3.45;;;5.70;99.90;;;;;;5126293;27;20425;-80
2023/01/28 11:44:49;;;;;;;9.88;3.78;;;5.70;99.90;;;;;;5090217;27;20043;-80
2023/01/28 11:47:26;;;;;;;6.15;4.20;;;5.70;99.90;;;;;;5073352;27;20078;-80
2023/01/28 11:50:14;;;;;;;9.18;4.30;;;5.60;99.90;;;;;;5107858;27;20039;-80
2023/01/28 11:53:07;;;;;;;4.68;3.95;;;5.60;99.90;;;;;;5108261;27;20047;-80
2023/01/28 11:56:14;;;;;;;8.32;4.22;;;5.60;99.90;;;;;;5107531;27;20461;-80
2023/01/28 11:58:49;;;;;;;5.70;3.92;;;5.70;99.90;;;;;;5125180;27;20059;-80
2023/01/28 12:01:18;;;;;;;8.90;4.25;;;5.70;99.90;;;;;;5090457;27;20049;-80
2023/01/28 12:04:03;;;;;;;6.47;4.50;;;5.60;99.90;;;;;;5107830;27;20383;-80
2023/01/28 12:06:42;;;;;;;6.22;4.47;;;5.70;99.90;;;;;;5125827;27;20043;-79
2023/01/28 12:09:20;;;;;;;7.50;4.30;;;5.60;99.90;;;;;;5125271;27;20051;-79
2023/01/28 12:14:51;;;;;;;9.82;4.72;;;6.00;99.90;;;;;;5124942;27;20066;-79
2023/01/28 12:17:49;;;;;;;5.25;4.00;;;5.40;99.90;;;;;;5107308;28;20256;-79
2023/01/28 12:20:38;;;;;;;8.65;4.40;;;5.80;99.90;;;;;;5106938;27;20058;-79
2023/01/28 12:23:20;;;;;;;8.02;4.70;;;5.30;99.90;;;;;;5125573;27;20043;-80
2023/01/28 12:26:05;;;;;;;9.07;5.07;;;5.40;99.90;;;;;;5125982;27;20074;-79
2023/01/28 12:28:45;;;;;;;5.75;4.80;;;5.50;99.90;;;;;;5125444;27;20156;-81
2023/01/28 12:31:48;;;;;;;8.68;5.45;;;5.50;99.90;;;;;;5106879;28;20043;-80
2023/01/28 12:34:19;;;;;;;6.25;4.90;;;5.50;99.90;;;;;;5106623;28;20050;-80
2023/01/28 12:37:16;;;;;;;7.72;4.80;;;5.60;99.90;;;;;;5106913;28;20042;-80
2023/01/28 12:39:42;;;;;;;8.50;5.07;;;4.70;99.90;;;;;;5125483;28;20047;-79
2023/01/28 12:42:34;;;;;;;7.47;4.72;;;5.80;99.90;;;;;;5106959;28;20046;-80
2023/01/28 12:45:23;;;;;;;7.95;4.30;;;5.90;99.90;;;;;;5106752;28;20131;-80
2023/01/28 12:47:59;;;;;;;6.28;3.88;;;6.00;99.90;;;;;;5058135;28;20480;-80
2023/01/28 12:50:36;;;;;;;7.57;4.95;;;6.20;99.90;;;;;;5106637;28;20043;-80
2023/01/28 12:53:22;;;;;;;5.13;4.03;;;6.20;99.90;;;;;;5106516;28;20131;-81
2023/01/28 12:55:54;;;;;;;6.70;4.22;;;6.20;99.90;;;;;;5106963;28;20043;-81
2023/01/28 12:58:30;;;;;;;7.43;4.47;;;6.60;99.90;;;;;;5089522;28;20051;-81
2023/01/28 13:01:02;;;;;;;8.63;4.50;;;6.30;99.90;;;;;;5089496;28;20126;-82
2023/01/28 13:03:42;;;;;;;6.20;4.38;;;6.40;99.90;;;;;;5089774;28;20055;-82
2023/01/28 13:06:18;;;;;;;7.45;5.05;;;6.50;99.90;;;;;;5106383;28;20082;-82
2023/01/28 13:08:44;;;;;;;5.95;4.13;;;6.60;99.90;;;;;;5106227;28;20062;-80
2023/01/28 13:11:15;;;;;;;14.60;4.25;;;6.70;99.90;;;;;;5072921;28;20054;-81
2023/01/28 13:13:42;;;;;;;7.25;4.70;;;6.80;99.90;;;;;;5107081;28;20406;-82
2023/01/28 13:16:10;;;;;;;9.32;4.93;;;6.70;99.90;;;;;;5125113;28;20047;-81
2023/01/28 13:18:38;;;;;;;8.55;4.60;;;6.90;99.90;;;;;;5106649;28;20173;-81
2023/01/28 13:21:06;;;;;;;5.57;4.05;;;6.60;99.90;;;;;;5106174;27;20054;-81
2023/01/28 13:23:38;;;;;;;5.78;4.05;;;6.60;99.90;;;;;;5089743;28;20059;-81
2023/01/28 13:26:19;;;;;;;8.02;4.10;;;6.50;99.90;;;;;;5108384;27;20078;-83
2023/01/28 13:28:50;;;;;;;11.30;4.35;;;6.50;99.90;;;;;;5110302;27;20101;-80
2023/01/28 13:31:23;;;;;;;11.02;4.75;;;6.50;99.90;;;;;;5110503;27;20374;-81
2023/01/28 13:33:55;;;;;;;5.80;4.18;;;6.40;99.90;;;;;;5093487;27;20047;-82
2023/01/28 13:36:35;;;;;;;6.40;4.30;;;6.30;99.90;;;;;;5109930;27;20062;-81
2023/01/28 13:39:18;;;;;;;6.70;3.80;;;6.20;99.90;;;;;;5109827;27;20591;-81
2023/01/28 13:41:47;;;;;;;7.43;3.80;;;6.20;99.90;;;;;;5092945;27;20039;-81
2023/01/28 13:44:24;;;;;;;7.53;4.25;;;6.40;99.90;;;;;;5093130;27;20496;-80
2023/01/28 13:46:52;;;;;;;6.13;4.13;;;6.20;99.90;;;;;;5128062;27;20047;-81
2023/01/28 13:49:40;;;;;;;6.28;3.88;;;6.10;99.90;;;;;;5093052;27;20267;-80
2023/01/28 13:52:15;;;;;;;7.78;4.25;;;6.10;99.90;;;;;;5109976;27;20126;-80